createdAt,value
2022-08-09T00:00:11.461Z,84
2022-08-09T00:00:44.508Z,85
2022-08-09T00:01:15.562Z,85
2022-08-09T00:01:55.310Z,85
2022-08-09T00:02:17.520Z,85
2022-08-09T00:02:42.801Z,85
2022-08-09T00:04:00.013Z,85
2022-08-09T00:04:24.988Z,85
2022-08-09T00:04:41.757Z,85
2022-08-09T00:06:17.448Z,85
2022-08-09T00:06:33.578Z,85
2022-08-09T00:07:07.795Z,85
2022-08-09T00:07:44.260Z,85
2022-08-09T00:08:10.604Z,85
2022-08-09T00:08:41.483Z,85
2022-08-09T00:09:13.150Z,85
2022-08-09T00:09:46.032Z,85
2022-08-09T00:10:21.334Z,85
2022-08-09T00:10:40.974Z,85
2022-08-09T00:11:05.851Z,85
2022-08-09T00:11:58.441Z,85
2022-08-09T00:12:22.452Z,85
2022-08-09T00:12:41.475Z,85
2022-08-09T00:13:17.624Z,86
2022-08-09T00:13:45.714Z,86
2022-08-09T00:14:22.042Z,86
2022-08-09T00:14:40.238Z,86
2022-08-09T00:15:06.817Z,86
2022-08-09T00:15:59.389Z,86
2022-08-09T00:16:09.614Z,86
2022-08-09T00:16:41.838Z,86
2022-08-09T00:18:04.225Z,86
2022-08-09T00:18:14.797Z,86
2022-08-09T00:18:44.808Z,86
2022-08-09T00:19:21.883Z,86
2022-08-09T00:19:48.044Z,86
2022-08-09T00:20:07.100Z,86
2022-08-09T00:20:48.237Z,86
2022-08-09T00:21:13.361Z,86
2022-08-09T00:21:56.661Z,86
2022-08-09T00:22:18.248Z,86
2022-08-09T00:22:39.989Z,86
2022-08-09T00:23:09.951Z,86
2022-08-09T00:24:10.449Z,86
2022-08-09T00:24:41.869Z,86
2022-08-09T00:25:13.470Z,86
2022-08-09T00:25:45.936Z,86
2022-08-09T00:26:17.509Z,86
2022-08-09T00:26:40.204Z,86
2022-08-09T00:27:03.044Z,86
2022-08-09T00:27:43.032Z,86
2022-08-09T00:28:10.589Z,86
2022-08-09T00:28:41.448Z,86
2022-08-09T00:30:16.481Z,86
2022-08-09T00:30:33.761Z,86
2022-08-09T00:31:30.456Z,86
2022-08-09T00:32:12.765Z,86
2022-08-09T00:32:41.772Z,86
2022-08-09T00:33:13.425Z,86
2022-08-09T00:33:50.567Z,86
2022-08-09T00:34:19.169Z,86
2022-08-09T00:34:40.749Z,86
2022-08-09T00:35:03.017Z,86
2022-08-09T00:35:43.071Z,86
2022-08-09T00:36:11.182Z,86
2022-08-09T00:36:41.841Z,86
2022-08-09T00:37:13.069Z,86
2022-08-09T00:37:45.551Z,86
2022-08-09T00:38:17.649Z,86
2022-08-09T00:38:40.395Z,86
2022-08-09T00:39:02.830Z,86
2022-08-09T00:40:13.707Z,86
2022-08-09T00:40:30.287Z,86
2022-08-09T00:40:52.570Z,86
2022-08-09T00:41:11.833Z,86
2022-08-09T00:44:27.321Z,87
2022-08-09T00:44:48.321Z,87
2022-08-09T00:45:16.220Z,87
2022-08-09T00:45:47.442Z,87
2022-08-09T00:46:28.667Z,87
2022-08-09T00:47:06.366Z,87
2022-08-09T00:47:39.852Z,87
2022-08-09T00:48:09.643Z,87
2022-08-09T00:48:41.709Z,87
2022-08-09T00:49:13.129Z,87
2022-08-09T00:49:52.549Z,87
2022-08-09T00:50:17.637Z,87
2022-08-09T00:50:40.364Z,87
2022-08-09T00:51:03.263Z,87
2022-08-09T00:51:54.136Z,88
2022-08-09T00:52:17.391Z,88
2022-08-09T00:52:42.383Z,88
2022-08-09T00:53:13.789Z,88
2022-08-09T00:53:46.445Z,88
2022-08-09T00:54:18.040Z,88
2022-08-09T00:54:40.676Z,88
2022-08-09T00:55:03.205Z,88
2022-08-09T00:56:05.226Z,88
2022-08-09T00:56:28.980Z,88
2022-08-09T00:56:48.188Z,88
2022-08-09T00:57:11.137Z,88
2022-08-09T00:57:49.757Z,88
2022-08-09T00:58:22.226Z,88
2022-08-09T00:58:40.156Z,88
2022-08-09T00:59:03.895Z,88
2022-08-09T00:59:41.694Z,88
2022-08-09T01:00:21.438Z,88
2022-08-09T01:00:41.586Z,89
2022-08-09T01:01:16.077Z,89
2022-08-09T01:01:45.566Z,89
2022-08-09T01:02:18.056Z,89
2022-08-09T01:02:40.689Z,89
2022-08-09T01:03:03.008Z,89
2022-08-09T01:03:45.545Z,89
2022-08-09T01:04:09.653Z,89
2022-08-09T01:04:42.216Z,89
2022-08-09T01:05:21.817Z,89
2022-08-09T01:05:53.766Z,89
2022-08-09T01:06:18.570Z,89
2022-08-09T01:06:54.666Z,89
2022-08-09T01:07:03.960Z,89
2022-08-09T01:08:00.613Z,89
2022-08-09T01:08:10.064Z,89
2022-08-09T01:08:49.027Z,89
2022-08-09T01:09:14.545Z,89
2022-08-09T01:09:46.908Z,89
2022-08-09T01:10:17.475Z,89
2022-08-09T01:10:40.150Z,89
2022-08-09T01:11:02.435Z,89
2022-08-09T01:11:37.745Z,89
2022-08-09T01:12:12.797Z,89
2022-08-09T01:12:41.963Z,89
2022-08-09T01:13:16.726Z,89
2022-08-09T01:13:59.274Z,88
2022-08-09T01:14:17.569Z,88
2022-08-09T01:14:40.382Z,88
2022-08-09T01:15:05.970Z,88
2022-08-09T01:15:40.902Z,88
2022-08-09T01:16:10.900Z,88
2022-08-09T01:16:47.466Z,88
2022-08-09T01:17:16.148Z,88
2022-08-09T01:17:45.505Z,88
2022-08-09T01:18:18.009Z,88
2022-08-09T01:18:40.578Z,88
2022-08-09T01:19:04.339Z,88
2022-08-09T01:19:57.041Z,88
2022-08-09T01:20:10.205Z,88
2022-08-09T01:20:43.072Z,88
2022-08-09T01:21:13.249Z,88
2022-08-09T01:21:51.303Z,88
2022-08-09T01:22:17.851Z,88
2022-08-09T01:22:40.612Z,88
2022-08-09T01:23:03.322Z,88
2022-08-09T01:24:02.270Z,88
2022-08-09T01:24:09.447Z,88
2022-08-09T01:24:50.439Z,88
2022-08-09T01:25:12.869Z,89
2022-08-09T01:25:48.978Z,89
2022-08-09T01:26:18.692Z,89
2022-08-09T01:26:41.341Z,89
2022-08-09T01:27:03.770Z,89
2022-08-09T01:27:38.025Z,89
2022-08-09T01:28:09.865Z,89
2022-08-09T01:28:41.415Z,89
2022-08-09T01:29:13.189Z,89
2022-08-09T01:29:55.148Z,89
2022-08-09T01:30:28.730Z,89
2022-08-09T01:30:51.688Z,89
2022-08-09T01:31:02.972Z,89
2022-08-09T01:32:32.280Z,89
2022-08-09T01:32:45.460Z,89
2022-08-09T01:33:13.165Z,89
2022-08-09T01:33:45.567Z,89
2022-08-09T01:34:17.537Z,89
2022-08-09T01:34:40.493Z,89
2022-08-09T01:35:07.159Z,89
2022-08-09T01:35:39.106Z,89
2022-08-09T01:36:09.456Z,89
2022-08-09T01:36:41.476Z,89
2022-08-09T01:37:13.397Z,89
2022-08-09T01:39:53.280Z,89
2022-08-09T01:40:28.350Z,89
2022-08-09T01:40:53.053Z,89
2022-08-09T01:41:11.766Z,89
2022-08-09T01:41:55.980Z,89
2022-08-09T01:42:17.818Z,89
2022-08-09T01:42:40.254Z,89
2022-08-09T01:43:02.461Z,89
2022-08-09T01:43:41.817Z,89
2022-08-09T01:44:11.330Z,89
2022-08-09T01:44:41.550Z,89
2022-08-09T01:45:13.707Z,89
2022-08-09T01:45:47.632Z,89
2022-08-09T01:46:25.236Z,89
2022-08-09T01:46:40.447Z,89
2022-08-09T01:47:02.895Z,89
2022-08-09T01:47:44.713Z,89
2022-08-09T01:48:10.037Z,89
2022-08-09T01:48:41.667Z,89
2022-08-09T01:49:14.610Z,89
2022-08-09T01:49:48.747Z,89
2022-08-09T01:50:19.246Z,89
2022-08-09T01:50:41.802Z,90
2022-08-09T01:51:03.227Z,90
2022-08-09T01:51:37.899Z,90
2022-08-09T01:52:09.509Z,90
2022-08-09T01:52:43.444Z,90
2022-08-09T01:53:20.159Z,90
2022-08-09T01:53:45.410Z,90
2022-08-09T01:54:19.454Z,90
2022-08-09T01:54:40.232Z,90
2022-08-09T01:55:02.880Z,90
2022-08-09T01:55:37.666Z,90
2022-08-09T01:56:09.445Z,90
2022-08-09T01:56:42.242Z,90
2022-08-09T01:57:14.940Z,90
2022-08-09T01:57:45.991Z,90
2022-08-09T01:58:17.303Z,90
2022-08-09T01:58:40.118Z,90
2022-08-09T01:59:02.651Z,90
2022-08-09T01:59:50.935Z,90
2022-08-09T02:00:34.914Z,90
2022-08-09T02:00:41.501Z,90
2022-08-09T02:01:18.138Z,90
2022-08-09T02:01:58.967Z,90
2022-08-09T02:02:17.666Z,90
2022-08-09T02:02:40.102Z,90
2022-08-09T02:03:02.495Z,91
2022-08-09T02:03:40.560Z,91
2022-08-09T02:04:09.892Z,91
2022-08-09T02:04:45.564Z,91
2022-08-09T02:05:15.863Z,91
2022-08-09T02:06:03.228Z,91
2022-08-09T02:06:18.938Z,91
2022-08-09T02:06:45.400Z,91
2022-08-09T02:07:03.906Z,91
2022-08-09T02:08:39.692Z,91
2022-08-09T02:09:13.529Z,91
2022-08-09T02:09:46.155Z,91
2022-08-09T02:10:17.594Z,91
2022-08-09T02:10:40.307Z,91
2022-08-09T02:11:02.642Z,91
2022-08-09T02:11:42.943Z,91
2022-08-09T02:12:09.390Z,91
2022-08-09T02:12:42.070Z,91
2022-08-09T02:13:13.907Z,91
2022-08-09T02:13:55.290Z,91
2022-08-09T02:14:26.554Z,91
2022-08-09T02:14:40.494Z,91
2022-08-09T02:15:03.050Z,91
2022-08-09T02:15:49.297Z,91
2022-08-09T02:16:09.503Z,91
2022-08-09T02:16:59.389Z,91
2022-08-09T02:18:01.498Z,91
2022-08-09T02:18:13.094Z,91
2022-08-09T02:18:47.867Z,91
2022-08-09T02:19:22.487Z,91
2022-08-09T02:19:44.243Z,91
2022-08-09T02:20:06.781Z,91
2022-08-09T02:20:43.226Z,91
2022-08-09T02:21:17.307Z,91
2022-08-09T02:21:46.464Z,91
2022-08-09T02:22:17.760Z,91
2022-08-09T02:22:40.689Z,91
2022-08-09T02:23:02.831Z,91
2022-08-09T02:23:40.038Z,91
2022-08-09T02:24:09.398Z,91
2022-08-09T02:24:42.152Z,91
2022-08-09T02:25:15.302Z,91
2022-08-09T02:25:52.755Z,91
2022-08-09T02:26:25.055Z,91
2022-08-09T02:26:40.094Z,91
2022-08-09T02:27:02.721Z,91
2022-08-09T02:27:43.101Z,91
2022-08-09T02:28:09.844Z,91
2022-08-09T02:28:41.682Z,91
2022-08-09T02:29:13.206Z,91
2022-08-09T02:29:45.575Z,91
2022-08-09T02:30:17.852Z,91
2022-08-09T02:30:41.487Z,91
2022-08-09T02:31:02.968Z,91
2022-08-09T02:31:37.875Z,91
2022-08-09T02:32:09.617Z,91
2022-08-09T02:32:42.742Z,91
2022-08-09T02:33:14.418Z,91
2022-08-09T02:34:07.467Z,91
2022-08-09T02:34:25.922Z,91
2022-08-09T02:34:51.946Z,91
2022-08-09T02:36:01.671Z,91
2022-08-09T02:36:10.562Z,91
2022-08-09T02:36:41.961Z,91
2022-08-09T02:37:13.689Z,91
2022-08-09T02:37:45.552Z,91
2022-08-09T02:38:22.156Z,91
2022-08-09T02:38:40.267Z,91
2022-08-09T02:39:02.869Z,91
2022-08-09T02:39:41.919Z,91
2022-08-09T02:40:09.533Z,91
2022-08-09T02:40:41.318Z,91
2022-08-09T02:41:13.117Z,91
2022-08-09T02:41:45.544Z,91
2022-08-09T02:42:17.465Z,91
2022-08-09T02:42:40.409Z,91
2022-08-09T02:43:02.677Z,92
2022-08-09T02:43:42.571Z,92
2022-08-09T02:44:13.606Z,92
2022-08-09T02:44:41.533Z,92
2022-08-09T02:45:13.246Z,92
2022-08-09T02:45:45.290Z,92
2022-08-09T02:46:17.392Z,92
2022-08-09T02:46:43.470Z,92
2022-08-09T02:47:21.281Z,92
2022-08-09T02:47:57.326Z,92
2022-08-09T02:48:06.304Z,92
2022-08-09T02:48:46.210Z,92
2022-08-09T02:49:16.654Z,92
2022-08-09T02:49:46.847Z,92
2022-08-09T02:50:17.316Z,92
2022-08-09T02:50:40.063Z,92
2022-08-09T02:51:02.814Z,92
2022-08-09T02:51:40.889Z,92
2022-08-09T02:52:09.408Z,92
2022-08-09T02:52:41.848Z,92
2022-08-09T02:53:17.340Z,92
2022-08-09T02:53:59.511Z,92
2022-08-09T02:54:17.398Z,92
2022-08-09T02:54:54.171Z,92
2022-08-09T02:55:03.202Z,92
2022-08-09T02:55:46.628Z,92
2022-08-09T02:56:10.909Z,92
2022-08-09T02:56:41.919Z,92
2022-08-09T02:57:13.987Z,92
2022-08-09T02:58:00.490Z,92
2022-08-09T02:58:37.393Z,92
2022-08-09T02:59:05.945Z,92
2022-08-09T02:59:37.361Z,92
2022-08-09T03:00:25.760Z,92
2022-08-09T03:00:47.735Z,92
2022-08-09T03:01:21.627Z,92
2022-08-09T03:02:06.361Z,92
2022-08-09T03:02:17.808Z,92
2022-08-09T03:02:46.481Z,92
2022-08-09T03:03:03.798Z,92
2022-08-09T03:04:16.467Z,92
2022-08-09T03:04:26.445Z,92
2022-08-09T03:04:50.843Z,92
2022-08-09T03:05:17.000Z,92
2022-08-09T03:05:39.360Z,92
2022-08-09T03:06:13.221Z,92
2022-08-09T03:06:45.501Z,92
2022-08-09T03:07:21.511Z,92
2022-08-09T03:07:55.051Z,92
2022-08-09T03:08:07.859Z,92
2022-08-09T03:08:41.234Z,92
2022-08-09T03:09:13.097Z,92
2022-08-09T03:09:54.248Z,92
2022-08-09T03:10:17.682Z,92
2022-08-09T03:10:40.623Z,92
2022-08-09T03:11:02.845Z,93
2022-08-09T03:12:05.617Z,93
2022-08-09T03:12:11.023Z,93
2022-08-09T03:12:44.735Z,93
2022-08-09T03:13:13.250Z,93
2022-08-09T03:13:59.664Z,93
2022-08-09T03:14:18.849Z,93
2022-08-09T03:14:40.833Z,93
2022-08-09T03:15:04.510Z,93
2022-08-09T03:15:40.679Z,93
2022-08-09T03:16:09.532Z,93
2022-08-09T03:16:47.465Z,93
2022-08-09T03:17:20.287Z,93
2022-08-09T03:17:57.942Z,93
2022-08-09T03:18:14.009Z,93
2022-08-09T03:18:44.714Z,93
2022-08-09T03:19:57.888Z,93
2022-08-09T03:20:11.635Z,93
2022-08-09T03:20:41.471Z,93
2022-08-09T03:21:13.209Z,93
2022-08-09T03:21:50.755Z,93
2022-08-09T03:22:24.870Z,93
2022-08-09T03:22:43.666Z,93
2022-08-09T03:23:15.089Z,93
2022-08-09T03:23:38.721Z,93
2022-08-09T03:24:09.946Z,93
2022-08-09T03:24:42.408Z,93
2022-08-09T03:25:26.642Z,93
2022-08-09T03:26:05.380Z,94
2022-08-09T03:26:33.363Z,94
2022-08-09T03:27:05.361Z,94
2022-08-09T03:28:26.184Z,94
2022-08-09T03:28:43.622Z,94
2022-08-09T03:29:23.058Z,94
2022-08-09T03:29:57.975Z,94
2022-08-09T03:30:30.159Z,94
2022-08-09T03:30:40.363Z,94
2022-08-09T03:31:10.052Z,94
2022-08-09T03:31:42.389Z,94
2022-08-09T03:32:09.640Z,94
2022-08-09T03:32:41.396Z,94
2022-08-09T03:33:18.962Z,94
2022-08-09T03:33:52.975Z,94
2022-08-09T03:34:18.829Z,94
2022-08-09T03:34:39.918Z,94
2022-08-09T03:35:02.840Z,94
2022-08-09T03:36:13.665Z,94
2022-08-09T03:36:27.599Z,94
2022-08-09T03:36:58.331Z,94
2022-08-09T03:37:54.623Z,94
2022-08-09T03:38:01.234Z,94
2022-08-09T03:38:33.328Z,94
2022-08-09T03:39:05.764Z,94
2022-08-09T03:39:38.438Z,94
2022-08-09T03:40:09.509Z,94
2022-08-09T03:40:42.527Z,94
2022-08-09T03:41:16.417Z,94
2022-08-09T03:41:48.497Z,94
2022-08-09T03:42:17.390Z,94
2022-08-09T03:42:43.046Z,94
2022-08-09T03:43:06.049Z,94
2022-08-09T03:43:37.635Z,94
2022-08-09T03:44:09.594Z,94
2022-08-09T03:44:41.354Z,94
2022-08-09T03:45:13.772Z,94
2022-08-09T03:46:04.165Z,94
2022-08-09T03:46:37.143Z,94
2022-08-09T03:47:05.225Z,94
2022-08-09T03:47:41.905Z,94
2022-08-09T03:48:09.257Z,94
2022-08-09T03:48:51.283Z,94
2022-08-09T03:49:18.989Z,94
2022-08-09T03:49:58.909Z,94
2022-08-09T03:50:18.740Z,94
2022-08-09T03:50:41.525Z,94
2022-08-09T03:51:03.708Z,94
2022-08-09T03:51:57.172Z,94
2022-08-09T03:52:09.336Z,94
2022-08-09T03:52:44.772Z,94
2022-08-09T03:53:13.318Z,94
2022-08-09T03:53:45.462Z,94
2022-08-09T03:54:17.324Z,94
2022-08-09T03:54:40.060Z,94
2022-08-09T03:55:02.443Z,94
2022-08-09T03:55:40.995Z,94
2022-08-09T03:56:09.482Z,94
2022-08-09T03:56:41.803Z,94
2022-08-09T03:57:19.949Z,94
2022-08-09T03:57:53.638Z,94
2022-08-09T03:58:21.109Z,94
2022-08-09T03:58:43.846Z,94
2022-08-09T03:59:03.882Z,94
2022-08-09T03:59:53.514Z,94
2022-08-09T04:00:10.012Z,94
2022-08-09T04:00:41.428Z,94
2022-08-09T04:01:13.580Z,94
2022-08-09T04:01:45.688Z,94
2022-08-09T04:02:19.792Z,94
2022-08-09T04:02:40.139Z,94
2022-08-09T04:03:02.525Z,94
2022-08-09T04:03:46.171Z,94
2022-08-09T04:04:14.445Z,94
2022-08-09T04:04:45.540Z,94
2022-08-09T04:05:26.777Z,94
2022-08-09T04:05:45.471Z,94
2022-08-09T04:06:17.243Z,94
2022-08-09T04:06:40.359Z,94
2022-08-09T04:07:05.041Z,94
2022-08-09T04:07:52.934Z,94
2022-08-09T04:08:09.293Z,94
2022-08-09T04:08:41.726Z,94
2022-08-09T04:09:41.517Z,94
2022-08-09T04:09:49.929Z,94
2022-08-09T04:10:20.772Z,94
2022-08-09T04:10:40.333Z,94
2022-08-09T04:11:02.331Z,94
2022-08-09T04:11:38.344Z,94
2022-08-09T04:12:11.967Z,94
2022-08-09T04:12:42.149Z,94
2022-08-09T04:13:13.497Z,94
2022-08-09T04:14:53.759Z,94
2022-08-09T04:15:17.008Z,94
2022-08-09T04:16:18.456Z,94
2022-08-09T04:16:26.916Z,95
2022-08-09T04:16:48.160Z,95
2022-08-09T04:17:10.443Z,95
2022-08-09T04:17:47.417Z,95
2022-08-09T04:18:17.908Z,95
2022-08-09T04:18:39.803Z,95
2022-08-09T04:19:02.194Z,95
2022-08-09T04:19:52.540Z,95
2022-08-09T04:20:09.473Z,95
2022-08-09T04:20:41.634Z,95
2022-08-09T04:21:13.279Z,95
2022-08-09T04:21:45.497Z,95
2022-08-09T04:22:17.258Z,95
2022-08-09T04:22:44.320Z,95
2022-08-09T04:23:09.706Z,95
2022-08-09T04:23:42.178Z,95
2022-08-09T04:24:09.439Z,95
2022-08-09T04:24:41.528Z,95
2022-08-09T04:25:13.503Z,95
2022-08-09T04:25:51.678Z,95
2022-08-09T04:26:17.414Z,95
2022-08-09T04:26:40.253Z,95
2022-08-09T04:27:02.579Z,95
2022-08-09T04:27:39.368Z,95
2022-08-09T04:28:09.382Z,95
2022-08-09T04:28:46.863Z,95
2022-08-09T04:29:15.618Z,95
2022-08-09T04:29:49.970Z,95
2022-08-09T04:30:17.277Z,95
2022-08-09T04:30:44.781Z,95
2022-08-09T04:31:05.846Z,95
2022-08-09T04:31:47.025Z,95
2022-08-09T04:32:09.342Z,95
2022-08-09T04:32:45.864Z,95
2022-08-09T04:33:13.376Z,95
2022-08-09T04:33:47.310Z,95
2022-08-09T04:34:19.030Z,95
2022-08-09T04:34:40.110Z,95
2022-08-09T04:35:02.514Z,95
2022-08-09T04:35:37.464Z,95
2022-08-09T04:36:09.712Z,95
2022-08-09T04:36:50.066Z,95
2022-08-09T04:37:13.258Z,95
2022-08-09T04:37:46.743Z,95
2022-08-09T04:38:17.217Z,95
2022-08-09T04:38:40.744Z,95
2022-08-09T04:39:02.384Z,95
2022-08-09T04:39:40.573Z,95
2022-08-09T04:40:09.336Z,95
2022-08-09T04:40:44.797Z,95
2022-08-09T04:41:13.442Z,95
2022-08-09T04:41:45.457Z,95
2022-08-09T04:42:17.210Z,95
2022-08-09T04:42:41.183Z,95
2022-08-09T04:43:03.602Z,95
2022-08-09T04:43:37.360Z,95
2022-08-09T04:44:11.323Z,95
2022-08-09T04:44:41.441Z,95
2022-08-09T04:45:13.458Z,95
2022-08-09T04:45:53.086Z,95
2022-08-09T04:46:19.298Z,95
2022-08-09T04:46:58.705Z,95
2022-08-09T04:47:04.672Z,95
2022-08-09T04:47:59.214Z,95
2022-08-09T04:48:11.881Z,95
2022-08-09T04:48:41.775Z,95
2022-08-09T04:49:14.820Z,95
2022-08-09T04:49:54.423Z,95
2022-08-09T04:50:19.670Z,95
2022-08-09T04:50:41.867Z,95
2022-08-09T04:51:02.577Z,95
2022-08-09T04:51:37.316Z,95
2022-08-09T04:52:09.664Z,95
2022-08-09T04:52:42.402Z,95
2022-08-09T04:53:13.875Z,95
2022-08-09T04:53:45.482Z,95
2022-08-09T04:54:17.303Z,95
2022-08-09T04:54:42.182Z,95
2022-08-09T04:55:04.018Z,95
2022-08-09T04:55:58.260Z,95
2022-08-09T04:56:09.420Z,95
2022-08-09T04:56:42.467Z,95
2022-08-09T04:57:13.289Z,95
2022-08-09T04:57:58.887Z,95
2022-08-09T04:58:17.470Z,96
2022-08-09T04:58:42.921Z,96
2022-08-09T04:59:07.922Z,96
2022-08-09T04:59:37.337Z,96
2022-08-09T05:00:09.934Z,96
2022-08-09T05:00:43.085Z,96
2022-08-09T05:01:16.372Z,96
2022-08-09T05:01:45.202Z,96
2022-08-09T05:02:17.292Z,96
2022-08-09T05:02:39.967Z,96
2022-08-09T05:03:30.605Z,96
2022-08-09T05:03:48.680Z,96
2022-08-09T05:04:09.226Z,96
2022-08-09T05:04:43.805Z,96
2022-08-09T05:05:13.395Z,96
2022-08-09T05:05:52.170Z,96
2022-08-09T05:06:27.882Z,96
2022-08-09T05:06:39.982Z,96
2022-08-09T05:07:02.260Z,96
2022-08-09T05:07:37.838Z,96
2022-08-09T05:08:09.326Z,96
2022-08-09T05:08:43.971Z,96
2022-08-09T05:09:13.299Z,96
2022-08-09T05:09:49.586Z,96
2022-08-09T05:10:17.182Z,96
2022-08-09T05:10:39.894Z,96
2022-08-09T05:11:02.459Z,96
2022-08-09T05:11:37.421Z,96
2022-08-09T05:12:09.201Z,96
2022-08-09T05:12:41.429Z,96
2022-08-09T05:13:18.799Z,96
2022-08-09T05:13:45.425Z,96
2022-08-09T05:14:17.914Z,96
2022-08-09T05:14:41.218Z,96
2022-08-09T05:15:03.293Z,96
2022-08-09T05:15:42.648Z,96
2022-08-09T05:16:10.118Z,96
2022-08-09T05:16:43.482Z,96
2022-08-09T05:18:39.876Z,96
2022-08-09T05:19:05.149Z,96
2022-08-09T05:19:46.216Z,96
2022-08-09T05:20:13.448Z,96
2022-08-09T05:20:35.986Z,96
2022-08-09T05:21:24.228Z,96
2022-08-09T05:21:52.464Z,96
2022-08-09T05:22:33.374Z,96
2022-08-09T05:23:57.699Z,96
2022-08-09T05:24:10.105Z,96
2022-08-09T05:24:43.790Z,96
2022-08-09T05:25:16.666Z,96
2022-08-09T05:25:45.881Z,96
2022-08-09T05:26:26.533Z,96
2022-08-09T05:26:49.110Z,96
2022-08-09T05:27:21.303Z,96
2022-08-09T05:27:47.796Z,96
2022-08-09T05:28:06.475Z,96
2022-08-09T05:28:41.297Z,96
2022-08-09T05:29:17.342Z,96
2022-08-09T05:29:46.739Z,96
2022-08-09T05:30:17.817Z,96
2022-08-09T05:30:47.945Z,96
2022-08-09T05:31:09.506Z,96
2022-08-09T05:31:44.848Z,96
2022-08-09T05:32:09.596Z,96
2022-08-09T05:32:43.445Z,96
2022-08-09T05:33:13.297Z,96
2022-08-09T05:33:46.719Z,96
2022-08-09T05:34:17.612Z,96
2022-08-09T05:34:42.908Z,96
2022-08-09T05:35:02.293Z,96
2022-08-09T05:35:38.879Z,96
2022-08-09T05:36:09.249Z,96
2022-08-09T05:36:41.279Z,96
2022-08-09T05:37:13.257Z,96
2022-08-09T05:37:47.983Z,96
2022-08-09T05:38:23.784Z,96
2022-08-09T05:38:40.349Z,96
2022-08-09T05:39:02.770Z,96
2022-08-09T05:39:42.870Z,96
2022-08-09T05:40:09.260Z,96
2022-08-09T05:40:41.282Z,96
2022-08-09T05:41:13.286Z,96
2022-08-09T05:41:47.556Z,96
2022-08-09T05:42:21.771Z,96
2022-08-09T05:42:48.585Z,96
2022-08-09T05:43:02.371Z,96
2022-08-09T05:43:37.624Z,96
2022-08-09T05:44:12.653Z,96
2022-08-09T05:44:42.773Z,96
2022-08-09T05:45:14.437Z,96
2022-08-09T05:45:55.531Z,96
2022-08-09T05:46:17.395Z,96
2022-08-09T05:46:42.453Z,96
2022-08-09T05:47:04.969Z,96
2022-08-09T05:47:45.622Z,96
2022-08-09T05:48:09.323Z,96
2022-08-09T05:48:41.142Z,96
2022-08-09T05:49:25.059Z,96
2022-08-09T05:50:39.762Z,96
2022-08-09T05:51:29.908Z,96
2022-08-09T05:51:54.558Z,96
2022-08-09T05:52:25.555Z,96
2022-08-09T05:52:54.129Z,96
2022-08-09T05:53:51.660Z,96
2022-08-09T05:54:14.612Z,96
2022-08-09T05:54:44.941Z,96
2022-08-09T05:55:21.720Z,96
2022-08-09T05:55:44.210Z,96
2022-08-09T05:56:07.193Z,96
2022-08-09T05:56:54.814Z,96
2022-08-09T05:57:14.239Z,96
2022-08-09T05:57:50.778Z,96
2022-08-09T05:58:18.465Z,96
2022-08-09T05:58:40.818Z,96
2022-08-09T05:59:03.977Z,96
2022-08-09T05:59:37.219Z,96
2022-08-09T06:00:10.266Z,96
2022-08-09T06:00:42.860Z,96
2022-08-09T06:01:15.937Z,96
2022-08-09T06:01:45.462Z,96
2022-08-09T06:02:18.596Z,96
2022-08-09T06:02:42.216Z,96
2022-08-09T06:03:02.588Z,96
2022-08-09T06:03:54.357Z,95
2022-08-09T06:04:09.409Z,95
2022-08-09T06:04:44.411Z,95
2022-08-09T06:05:14.713Z,95
2022-08-09T06:05:50.589Z,95
2022-08-09T06:06:17.794Z,95
2022-08-09T06:06:45.118Z,95
2022-08-09T06:07:03.314Z,94
2022-08-09T06:07:44.731Z,94
2022-08-09T06:08:11.177Z,94
2022-08-09T06:08:42.311Z,94
2022-08-09T06:09:40.859Z,94
2022-08-09T06:10:02.993Z,93
2022-08-09T06:10:33.263Z,93
2022-08-09T06:11:16.722Z,93
2022-08-09T06:11:40.902Z,93
2022-08-09T06:12:14.909Z,93
2022-08-09T06:12:35.294Z,92
2022-08-09T06:13:18.660Z,92
2022-08-09T06:13:45.814Z,91
2022-08-09T06:14:17.571Z,90
2022-08-09T06:14:40.106Z,90
2022-08-09T06:15:09.490Z,90
2022-08-09T06:15:37.391Z,90
2022-08-09T06:16:09.181Z,89
2022-08-09T06:16:41.438Z,89
2022-08-09T06:17:13.274Z,88
2022-08-09T06:17:46.726Z,87
2022-08-09T06:18:17.289Z,86
2022-08-09T06:18:40.083Z,86
2022-08-09T06:19:02.418Z,85
2022-08-09T06:19:37.344Z,84
2022-08-09T06:20:09.734Z,83
2022-08-09T06:20:41.135Z,82
2022-08-09T06:21:16.213Z,81
2022-08-09T06:21:50.313Z,81
2022-08-09T06:22:17.306Z,80
2022-08-09T06:22:45.651Z,80
2022-08-09T06:23:21.442Z,79
2022-08-09T06:23:57.357Z,79
2022-08-09T06:24:06.894Z,79
2022-08-09T06:24:41.161Z,79
2022-08-09T06:25:18.755Z,78
2022-08-09T06:25:45.216Z,77
2022-08-09T06:26:21.029Z,77
2022-08-09T06:26:40.013Z,77
2022-08-09T06:27:02.205Z,76
2022-08-09T06:27:42.533Z,77
2022-08-09T06:28:09.426Z,77
2022-08-09T06:28:43.446Z,76
2022-08-09T06:29:14.881Z,76
2022-08-09T06:29:48.408Z,76
2022-08-09T06:30:17.158Z,76
2022-08-09T06:30:40.241Z,76
2022-08-09T06:31:02.517Z,76
2022-08-09T06:31:40.458Z,76
2022-08-09T06:32:53.395Z,75
2022-08-09T06:33:41.271Z,75
2022-08-09T06:33:48.719Z,75
2022-08-09T06:34:17.340Z,75
2022-08-09T06:34:40.153Z,75
2022-08-09T06:35:02.514Z,75
2022-08-09T06:35:56.968Z,74
2022-08-09T06:36:11.961Z,74
2022-08-09T06:36:42.912Z,74
2022-08-09T06:37:13.373Z,74
2022-08-09T06:37:50.720Z,73
2022-08-09T06:38:17.635Z,72
2022-08-09T06:38:47.202Z,73
2022-08-09T06:39:09.382Z,72
2022-08-09T06:39:58.077Z,73
2022-08-09T06:40:16.370Z,73
2022-08-09T06:40:41.749Z,72
2022-08-09T06:41:18.930Z,73
2022-08-09T06:42:07.601Z,72
2022-08-09T06:42:17.088Z,72
2022-08-09T06:42:44.894Z,73
2022-08-09T06:43:03.221Z,73
2022-08-09T06:43:37.458Z,71
2022-08-09T06:44:09.231Z,72
2022-08-09T06:44:45.754Z,72
2022-08-09T06:46:05.039Z,72
2022-08-09T06:46:39.959Z,71
2022-08-09T06:46:45.084Z,72
2022-08-09T06:47:21.953Z,71
2022-08-09T06:47:44.350Z,71
2022-08-09T06:48:06.751Z,71
2022-08-09T06:48:42.793Z,71
2022-08-09T06:49:16.203Z,71
2022-08-09T06:50:14.314Z,71
2022-08-09T06:50:33.525Z,72
2022-08-09T06:51:05.356Z,72
2022-08-09T06:51:39.025Z,72
2022-08-09T06:52:09.305Z,72
2022-08-09T06:52:41.400Z,72
2022-08-09T06:53:13.227Z,72
2022-08-09T06:53:45.746Z,72
2022-08-09T06:54:18.056Z,72
2022-08-09T06:54:41.337Z,71
2022-08-09T06:55:10.075Z,71
2022-08-09T06:55:37.738Z,71
2022-08-09T06:56:10.758Z,70
2022-08-09T06:56:48.617Z,70
2022-08-09T06:57:11.192Z,71
2022-08-09T06:58:02.755Z,70
2022-08-09T07:00:47.621Z,71
2022-08-09T07:00:59.650Z,71
2022-08-09T07:01:54.559Z,70
2022-08-09T07:02:04.585Z,70
2022-08-09T07:02:33.642Z,70
2022-08-09T07:03:05.919Z,69
2022-08-09T07:03:39.534Z,68
2022-08-09T07:04:10.480Z,68
2022-08-09T07:04:35.594Z,68
2022-08-09T07:05:14.004Z,68
2022-08-09T07:05:58.372Z,68
2022-08-09T07:06:17.222Z,68
2022-08-09T07:06:40.346Z,68
2022-08-09T07:07:04.802Z,68
2022-08-09T07:08:00.551Z,68
2022-08-09T07:08:12.573Z,69
2022-08-09T07:08:42.170Z,69
2022-08-09T07:09:54.233Z,69
2022-08-09T07:10:18.003Z,70
2022-08-09T07:10:33.315Z,70
2022-08-09T07:11:06.609Z,68
2022-08-09T07:11:51.948Z,69
2022-08-09T07:12:13.698Z,68
2022-08-09T07:12:57.095Z,68
2022-08-09T07:13:27.991Z,68
2022-08-09T07:14:04.750Z,68
2022-08-09T07:14:17.460Z,68
2022-08-09T07:14:40.187Z,68
2022-08-09T07:15:53.072Z,67
2022-08-09T07:16:42.295Z,68
2022-08-09T07:16:58.497Z,68
2022-08-09T07:17:29.272Z,67
2022-08-09T07:17:56.142Z,68
2022-08-09T07:18:15.253Z,67
2022-08-09T07:18:47.494Z,67
2022-08-09T07:19:23.662Z,67
2022-08-09T07:19:44.046Z,67
2022-08-09T07:20:08.102Z,68
2022-08-09T07:20:43.583Z,67
2022-08-09T07:21:13.282Z,67
2022-08-09T07:21:55.726Z,67
2022-08-09T07:22:18.224Z,67
2022-08-09T07:22:46.435Z,67
2022-08-09T07:23:03.787Z,68
2022-08-09T07:23:56.422Z,67
2022-08-09T07:24:09.285Z,67
2022-08-09T07:24:44.354Z,67
2022-08-09T07:25:13.689Z,67
2022-08-09T07:25:45.454Z,66
2022-08-09T07:26:17.288Z,65
2022-08-09T07:26:40.043Z,65
2022-08-09T07:27:04.535Z,66
2022-08-09T07:27:43.227Z,66
2022-08-09T07:28:10.379Z,66
2022-08-09T07:29:01.370Z,66
2022-08-09T07:29:13.651Z,65
2022-08-09T07:29:46.081Z,65
2022-08-09T07:30:18.448Z,65
2022-08-09T07:30:41.227Z,65
2022-08-09T07:31:05.134Z,65
2022-08-09T07:31:38.104Z,65
2022-08-09T07:32:09.458Z,66
2022-08-09T07:32:42.275Z,66